ウィントフック の空港の天気 - METARとTAF

ウィンドフック・ホセア・クタコ国際空港 ( FYWH / WDH ) - ナミビア ウィントフック
飛行場実況気象(Metar)
観測時間01/24 14:00 WAT (01/24 12:00 UTC)
風向・風速北西 7m/s 瞬間風速12m/s
視程10km以上
天気現象
全天の4割程度の雲 雲底高度 1220m
気温31℃
湿度14%
気圧1019hPa
METARFYWH 241200Z 31013G24KT 9999 SCT040TCU 31/M00 Q1019 NOSIG
過去の天気等 Google飛行場航空写真 Wunderground天気予報

過去48時間のMETAR

飛行場予報(TAF)
発表時間: 1/24 12:00 WAT (1/24 10:00 UTC)
予報対象時間: 24日14時 WAT ~ 25日14時 WAT
風向・風速北西 7m/s
視程10km以上
全天の8割程度の雲 雲底高度 1220m
24日15時 WAT ~ 24日20時 WAT に 確率 30% で一時的に
天気現象弱い雷雨
少しの積乱雲 雲底高度 1220m
24日22時 WAT ~ 24日24時 WAT に徐々に
風向・風速西南西 3m/s
天気現象運行に影響にある天気現象が終了
なし
TAF FYWH 241000Z 2412/2512 31013KT 9999 BKN040
PROB30 TEMPO 2413/2418 -TSRA FEW040CB
BECMG 2420/2422 24006KT NSW NSC